CheckWX is a tool to help pilots better visualize weather data.  It is not intended as a substitute for an official pre-flight weather briefing.

06:20:56 UTC

KJAN METAR
Jackson-Medgar Wiley Evers International Airport
Jackson, Mississippi, USA
Current

27 mins ago

KJAN 140554Z 00000KT 10SM CLR 26/23 A2992 RMK AO2 SLP126 T02610233 10317 20256 403560239 53002
Observed
Jul-14 @ 05:54 UTC
Visibility
10 SM
Flight Rules
VFR
Cloud Levels
  • Clear skies
Dewpoint
23°C / 73°F
Humidity
84%
Altimeter
29.92" Hg
Pressure
1013.22 hPa
Previous

1 hour ago

KJAN 140454Z 00000KT 10SM CLR 26/23 A2992 RMK AO2 SLP124 T02610233
Observed
Jul-14 @ 04:54 UTC
Visibility
10 SM
Flight Rules
VFR
Cloud Levels
  • Clear skies
Temperature
26°C / 79°F
Dewpoint
23°C / 73°F
Humidity
84%
Altimeter
29.92" Hg
Pressure
1013.22 hPa
Previous

2 hours ago

KJAN 140354Z 00000KT 10SM CLR 27/24 A2991 RMK AO2 SLP122 T02720239
Observed
Jul-14 @ 03:54 UTC
Visibility
10 SM
Flight Rules
VFR
Cloud Levels
  • Clear skies
Temperature
27°C / 81°F
Dewpoint
24°C / 75°F
Humidity
84%
Altimeter
29.91" Hg
Pressure
1012.92 hPa